Time;durP1;ratioP1;P1;durP2;ratioP2;P2;SDS_P1;SDS_P2;PMS_P1;PMS_P2;Temp;Humidity;BMP_temperature;BMP_pressure;BME280_temperature;BME280_humidity;BME280_pressure;Samples;Min_cycle;Max_cycle;Signal;HPM_P1;HPM_P2
2022/01/22 00:01:32;;;;;;;;;;;15.70;32.90;;;;;;8329225;28;19925;-50
2022/01/22 00:05:33;;;;;;;;;;;15.70;32.90;;;;;;8329523;28;19921;-49
2022/01/22 00:09:38;;;;;;;;;;;15.70;32.90;;;;;;8329617;28;20428;-54
2022/01/22 00:17:58;;;;;;;;;;;15.70;32.90;;;;;;8334789;28;19979;-50
2022/01/22 00:21:59;;;;;;;;;;;15.70;32.90;;;;;;8330675;28;19921;-51
2022/01/22 00:25:59;;;;;;;;;;;15.70;33.00;;;;;;8335608;28;19955;-50
2022/01/22 00:30:00;;;;;;;;;;;15.70;32.90;;;;;;8335763;28;19914;-54
2022/01/22 00:34:00;;;;;;;;;;;15.70;32.90;;;;;;8334818;28;20328;-51
2022/01/22 00:38:00;;;;;;;;;;;15.70;32.90;;;;;;8335396;28;19920;-53
2022/01/22 00:42:01;;;;;;;;;;;15.70;33.00;;;;;;8335166;28;19924;-51
2022/01/22 00:46:02;;;;;;;;;;;15.70;33.00;;;;;;8334480;28;19913;-53
2022/01/22 00:50:04;;;;;;;;;;;15.70;33.00;;;;;;8335051;28;19917;-51
2022/01/22 00:54:04;;;;;;;;;;;15.70;33.10;;;;;;8334817;28;19917;-50
2022/01/22 00:58:06;;;;;;;;;;;15.60;33.10;;;;;;8334444;28;19925;-51
2022/01/22 01:02:07;;;;;;;;;;;15.60;33.10;;;;;;8334617;28;19973;-50
2022/01/22 01:06:07;;;;;;;;;;;15.60;33.10;;;;;;8334578;28;19921;-50
2022/01/22 01:10:09;;;;;;;;;;;15.60;33.10;;;;;;8333934;28;19917;-50
2022/01/22 01:14:15;;;;;;;;;;;15.60;33.10;;;;;;8334301;28;19924;-50
2022/01/22 01:35:36;;;;;;;;;;;15.50;33.10;;;;;;8335580;28;20011;-49
2022/01/22 01:39:38;;;;;;;;;;;15.50;33.10;;;;;;8333440;28;19925;-51
2022/01/22 01:43:39;;;;;;;;;;;15.50;33.10;;;;;;8333074;28;19913;-51
2022/01/22 01:47:42;;;;;;;;;;;15.50;33.10;;;;;;8333423;28;19921;-50
2022/01/22 01:51:43;;;;;;;;;;;15.50;33.10;;;;;;8333233;28;19924;-52
2022/01/22 01:56:02;;;;;;;;;;;15.50;33.10;;;;;;8337854;28;19948;-49
2022/01/22 02:00:03;;;;;;;;;;;15.50;33.10;;;;;;8336247;28;19925;-49
2022/01/22 02:04:05;;;;;;;;;;;15.50;33.20;;;;;;8331903;28;20321;-52
2022/01/22 02:08:06;;;;;;;;;;;15.50;33.20;;;;;;8319105;28;19918;-50
2022/01/22 02:12:14;;;;;;;;;;;15.50;33.10;;;;;;8298495;28;20293;-53
2022/01/22 02:25:04;;;;;;;;;;;15.60;33.00;;;;;;8305048;28;19971;-50
2022/01/22 02:29:05;;;;;;;;;;;15.60;33.00;;;;;;8330805;28;20007;-49
2022/01/22 02:37:21;;;;;;;;;;;15.60;33.00;;;;;;8331292;28;19917;-51
2022/01/22 02:41:24;;;;;;;;;;;15.60;32.90;;;;;;8330454;28;19971;-52
2022/01/22 02:45:24;;;;;;;;;;;15.70;32.90;;;;;;8329364;28;19946;-54
2022/01/22 02:49:25;;;;;;;;;;;15.70;33.00;;;;;;8329648;28;20312;-50
2022/01/22 02:53:26;;;;;;;;;;;15.70;33.00;;;;;;8329736;28;20297;-52
2022/01/22 02:57:31;;;;;;;;;;;15.70;33.00;;;;;;8329776;28;19918;-54
2022/01/22 03:01:31;;;;;;;;;;;15.70;33.00;;;;;;8329057;28;19925;-51
2022/01/22 03:05:32;;;;;;;;;;;15.60;33.00;;;;;;8269921;28;1726771;-51
2022/01/22 03:09:40;;;;;;;;;;;15.70;33.00;;;;;;8330956;28;19917;-52
2022/01/22 03:22:15;;;;;;;;;;;15.60;33.10;;;;;;8332158;28;19971;-49
2022/01/22 03:30:35;;;;;;;;;;;15.60;33.10;;;;;;8332380;28;19967;-50
2022/01/22 03:34:41;;;;;;;;;;;15.60;33.20;;;;;;8329885;28;19914;-54
2022/01/22 03:38:42;;;;;;;;;;;15.60;33.20;;;;;;8329851;28;19931;-50
2022/01/22 03:42:42;;;;;;;;;;;15.50;33.20;;;;;;8330081;28;19918;-51
2022/01/22 03:46:43;;;;;;;;;;;15.60;33.20;;;;;;8311849;28;19917;-49
2022/01/22 03:50:43;;;;;;;;;;;15.50;33.20;;;;;;8329961;28;19917;-50
2022/01/22 03:54:43;;;;;;;;;;;15.50;33.20;;;;;;8330091;28;19917;-51
2022/01/22 03:58:45;;;;;;;;;;;15.50;33.20;;;;;;8333916;28;19940;-50
2022/01/22 04:07:49;;;;;;;;;;;15.50;33.20;;;;;;8336341;28;20004;-50
2022/01/22 04:11:21;;;;;;;;;;;15.50;33.30;;;;;;8335663;28;19928;-51
2022/01/22 04:15:25;;;;;;;;;;;15.50;33.30;;;;;;8335986;28;20000;-50
2022/01/22 04:28:03;;;;;;;;;;;15.50;33.30;;;;;;8337367;28;19952;-49
2022/01/22 04:32:04;;;;;;;;;;;15.50;33.30;;;;;;8335772;28;20334;-50
2022/01/22 04:36:05;;;;;;;;;;;15.50;33.30;;;;;;8335498;28;19948;-51
2022/01/22 04:40:07;;;;;;;;;;;15.60;33.30;;;;;;8334991;28;19954;-52
2022/01/22 04:44:08;;;;;;;;;;;15.60;33.30;;;;;;8335481;28;20289;-53
2022/01/22 04:48:41;;;;;;;;;;;15.70;33.30;;;;;;8334951;28;20008;-53
2022/01/22 04:54:57;;;;;;;;;;;15.70;33.20;;;;;;8334485;28;19925;-50
2022/01/22 04:57:02;;;;;;;;;;;15.70;33.20;;;;;;8334824;28;20369;-50
2022/01/22 05:01:02;;;;;;;;;;;15.70;33.20;;;;;;8316252;28;19933;-50
2022/01/22 05:05:04;;;;;;;;;;;15.70;33.20;;;;;;8334948;28;19922;-51
2022/01/22 05:09:04;;;;;;;;;;;15.70;33.10;;;;;;8323535;28;20437;-53
2022/01/22 05:13:04;;;;;;;;;;;15.70;33.10;;;;;;8297969;28;19989;-52
2022/01/22 05:17:07;;;;;;;;;;;15.70;33.10;;;;;;8301445;28;19917;-50
2022/01/22 05:21:11;;;;;;;;;;;15.70;33.10;;;;;;8301094;28;19928;-50
2022/01/22 05:25:19;;;;;;;;;;;15.70;33.10;;;;;;8300883;28;19922;-50
2022/01/22 05:37:44;;;;;;;;;;;15.70;33.10;;;;;;8290543;28;20005;-51
2022/01/22 05:41:44;;;;;;;;;;;15.70;33.10;;;;;;8300585;28;19926;-51
2022/01/22 05:45:45;;;;;;;;;;;15.70;33.10;;;;;;8300636;28;19952;-51
2022/01/22 05:49:45;;;;;;;;;;;15.60;33.10;;;;;;8300059;28;20004;-51
2022/01/22 05:54:18;;;;;;;;;;;15.60;33.10;;;;;;8300505;28;19918;-50
2022/01/22 06:02:25;;;;;;;;;;;15.60;33.10;;;;;;8300312;28;19944;-51
2022/01/22 06:06:26;;;;;;;;;;;15.60;33.20;;;;;;8299901;28;19918;-50
2022/01/22 06:10:29;;;;;;;;;;;15.60;33.20;;;;;;8299548;28;19914;-52
2022/01/22 06:14:29;;;;;;;;;;;15.60;33.20;;;;;;8299521;28;19918;-52
2022/01/22 06:18:30;;;;;;;;;;;15.60;33.20;;;;;;8298989;28;20259;-50
2022/01/22 06:22:30;;;;;;;;;;;15.60;33.20;;;;;;8298443;28;19921;-50
2022/01/22 06:26:31;;;;;;;;;;;15.60;33.20;;;;;;8299310;28;19917;-52
2022/01/22 06:30:32;;;;;;;;;;;15.60;33.20;;;;;;8299505;28;20350;-52
2022/01/22 06:34:32;;;;;;;;;;;15.60;33.20;;;;;;8298635;28;19936;-50
2022/01/22 06:38:33;;;;;;;;;;;15.50;33.30;;;;;;8298896;28;19988;-52
2022/01/22 06:42:34;;;;;;;;;;;15.50;33.20;;;;;;8296423;28;19922;-51
2022/01/22 06:46:34;;;;;;;;;;;15.50;33.20;;;;;;8269521;28;20389;-54
2022/01/22 06:50:35;;;;;;;;;;;15.50;33.20;;;;;;8298782;28;20318;-53
2022/01/22 06:54:35;;;;;;;;;;;15.50;33.40;;;;;;8298575;28;19924;-53
2022/01/22 06:58:36;;;;;;;;;;;15.50;33.30;;;;;;8297926;28;19925;-52
2022/01/22 07:02:36;;;;;;;;;;;15.50;33.20;;;;;;8298382;28;19975;-49
2022/01/22 07:06:36;;;;;;;;;;;15.50;33.20;;;;;;8298124;28;19940;-53
2022/01/22 07:10:37;;;;;;;;;;;15.50;33.20;;;;;;8297695;28;20362;-52
2022/01/22 07:14:38;;;;;;;;;;;15.50;33.20;;;;;;8298106;28;19917;-53
2022/01/22 07:18:38;;;;;;;;;;;15.50;33.20;;;;;;8297627;28;19925;-52
2022/01/22 07:22:49;;;;;;;;;;;15.50;33.20;;;;;;8297301;28;19963;-52
2022/01/22 07:26:50;;;;;;;;;;;15.50;33.20;;;;;;8303066;28;19953;-53
2022/01/22 07:30:52;;;;;;;;;;;15.50;33.20;;;;;;8297086;28;20294;-49
2022/01/22 07:34:52;;;;;;;;;;;15.50;33.30;;;;;;8297611;28;20366;-49
2022/01/22 07:38:53;;;;;;;;;;;15.50;33.80;;;;;;8297461;28;20004;-50
2022/01/22 07:42:54;;;;;;;;;;;15.50;33.30;;;;;;8296842;28;19917;-53
2022/01/22 07:46:54;;;;;;;;;;;15.50;33.30;;;;;;8297160;28;19944;-50
2022/01/22 07:50:55;;;;;;;;;;;15.50;33.30;;;;;;8297404;28;19920;-49
2022/01/22 07:54:56;;;;;;;;;;;15.50;33.30;;;;;;8296749;28;19918;-49
2022/01/22 07:58:58;;;;;;;;;;;15.50;33.30;;;;;;8297071;28;20390;-50
2022/01/22 08:02:59;;;;;;;;;;;15.50;33.30;;;;;;8297053;28;19922;-52
2022/01/22 08:07:02;;;;;;;;;;;15.50;33.30;;;;;;8295591;28;19933;-52
2022/01/22 08:11:02;;;;;;;;;;;15.50;33.30;;;;;;8297391;28;19936;-50
2022/01/22 08:15:04;;;;;;;;;;;15.50;33.30;;;;;;8296678;28;19918;-53
2022/01/22 08:19:05;;;;;;;;;;;15.50;33.30;;;;;;8295658;28;19929;-50
2022/01/22 08:23:05;;;;;;;;;;;15.50;33.30;;;;;;8297100;28;20400;-52
2022/01/22 08:27:19;;;;;;;;;;;15.50;33.30;;;;;;8296851;28;19918;-51
2022/01/22 08:31:36;;;;;;;;;;;15.50;33.30;;;;;;8297975;28;19918;-51
2022/01/22 08:35:55;;;;;;;;;;;15.50;33.30;;;;;;8298619;28;20345;-50
2022/01/22 08:39:56;;;;;;;;;;;15.50;33.30;;;;;;8296098;28;19985;-52
2022/01/22 08:43:58;;;;;;;;;;;15.50;33.30;;;;;;8299447;28;19917;-50
2022/01/22 08:47:58;;;;;;;;;;;15.50;33.30;;;;;;8302686;28;20364;-54
2022/01/22 08:51:58;;;;;;;;;;;15.50;33.30;;;;;;8302133;28;19917;-51
2022/01/22 08:56:00;;;;;;;;;;;15.50;33.30;;;;;;8302409;28;19921;-51
2022/01/22 09:00:01;;;;;;;;;;;15.50;33.30;;;;;;8301893;28;19925;-53
2022/01/22 09:04:02;;;;;;;;;;;15.60;33.30;;;;;;8301687;28;19921;-50
2022/01/22 09:08:03;;;;;;;;;;;15.60;33.20;;;;;;8301845;28;20000;-49
2022/01/22 09:12:05;;;;;;;;;;;15.70;33.20;;;;;;8301921;28;19967;-51
2022/01/22 09:16:05;;;;;;;;;;;15.70;33.10;;;;;;8301086;28;20285;-50
2022/01/22 09:20:10;;;;;;;;;;;15.70;33.30;;;;;;8301364;28;19932;-50
2022/01/22 09:24:11;;;;;;;;;;;15.70;33.00;;;;;;8301407;28;20378;-51
2022/01/22 09:28:13;;;;;;;;;;;15.80;33.00;;;;;;8300791;28;20282;-49
2022/01/22 09:32:13;;;;;;;;;;;15.80;33.00;;;;;;8301244;28;20008;-51
2022/01/22 09:36:14;;;;;;;;;;;15.80;33.00;;;;;;8301098;28;19921;-50
2022/01/22 09:40:15;;;;;;;;;;;15.80;33.00;;;;;;8300160;28;20408;-52
2022/01/22 09:44:15;;;;;;;;;;;15.80;33.00;;;;;;8301012;28;19917;-53
2022/01/22 09:48:16;;;;;;;;;;;15.80;33.00;;;;;;8300536;28;20271;-51
2022/01/22 09:52:17;;;;;;;;;;;15.80;33.00;;;;;;8300298;28;20374;-52
2022/01/22 09:56:19;;;;;;;;;;;15.80;33.00;;;;;;8299517;28;19944;-51
2022/01/22 10:00:22;;;;;;;;;;;15.80;33.00;;;;;;8300229;28;19925;-53
2022/01/22 10:04:36;;;;;;;;;;;15.80;32.90;;;;;;8299644;28;19929;-52
2022/01/22 10:08:39;;;;;;;;;;;15.80;32.90;;;;;;8300302;28;19924;-51
2022/01/22 10:12:44;;;;;;;;;;;15.80;32.90;;;;;;8282469;28;19972;-53
2022/01/22 10:16:46;;;;;;;;;;;15.80;32.90;;;;;;8299430;28;19975;-51
2022/01/22 10:20:47;;;;;;;;;;;15.80;32.90;;;;;;8299466;28;20405;-54
2022/01/22 10:24:49;;;;;;;;;;;15.80;32.90;;;;;;8299467;28;20004;-52
2022/01/22 10:28:55;;;;;;;;;;;15.80;32.90;;;;;;8332073;28;19917;-55
2022/01/22 10:33:07;;;;;;;;;;;15.80;32.90;;;;;;8337584;28;19914;-52
2022/01/22 10:37:07;;;;;;;;;;;15.80;32.90;;;;;;8333907;28;19936;-55
2022/01/22 10:41:08;;;;;;;;;;;15.80;32.90;;;;;;8331716;28;19929;-51
2022/01/22 10:45:12;;;;;;;;;;;15.80;32.90;;;;;;8334307;28;20378;-49
2022/01/22 10:49:18;;;;;;;;;;;15.80;32.90;;;;;;8334666;28;19928;-49
2022/01/22 10:53:20;;;;;;;;;;;15.80;32.90;;;;;;8332344;28;20000;-54
2022/01/22 10:57:24;;;;;;;;;;;15.80;32.90;;;;;;8331534;28;20362;-53
2022/01/22 11:01:45;;;;;;;;;;;15.80;32.90;;;;;;8330527;28;19929;-52
2022/01/22 11:05:45;;;;;;;;;;;15.80;33.40;;;;;;8329549;28;19925;-50
2022/01/22 11:09:46;;;;;;;;;;;15.80;33.00;;;;;;8330962;28;20369;-54
2022/01/22 11:13:47;;;;;;;;;;;15.80;32.90;;;;;;8330557;28;19988;-54
2022/01/22 11:17:47;;;;;;;;;;;15.90;32.80;;;;;;8331271;28;20358;-50
2022/01/22 11:21:52;;;;;;;;;;;15.90;32.80;;;;;;8330516;28;20016;-50
2022/01/22 11:25:54;;;;;;;;;;;16.00;32.80;;;;;;8306071;28;19917;-52
2022/01/22 11:29:57;;;;;;;;;;;16.00;32.70;;;;;;8330267;28;19920;-52
2022/01/22 11:33:58;;;;;;;;;;;16.00;32.60;;;;;;8329834;28;19924;-51
2022/01/22 11:38:04;;;;;;;;;;;16.00;32.60;;;;;;8330324;28;19913;-50
2022/01/22 11:42:04;;;;;;;;;;;16.00;32.60;;;;;;8330486;28;19978;-51
2022/01/22 11:46:18;;;;;;;;;;;16.00;32.60;;;;;;8329491;28;20012;-54
2022/01/22 11:50:21;;;;;;;;;;;16.10;32.60;;;;;;8329796;28;19971;-52
2022/01/22 11:54:22;;;;;;;;;;;16.10;32.70;;;;;;8329727;28;19999;-54
2022/01/22 11:58:23;;;;;;;;;;;16.10;32.70;;;;;;8329281;28;20344;-50
2022/01/22 12:02:23;;;;;;;;;;;16.10;32.60;;;;;;8329904;28;19966;-53
2022/01/22 12:06:24;;;;;;;;;;;16.10;32.70;;;;;;8329908;28;19929;-54
2022/01/22 12:10:40;;;;;;;;;;;16.10;32.70;;;;;;8329113;28;19928;-52
2022/01/22 12:14:47;;;;;;;;;;;16.20;32.70;;;;;;8334144;28;19917;-53
2022/01/22 12:18:58;;;;;;;;;;;16.20;32.80;;;;;;8332597;28;19932;-51
2022/01/22 12:22:58;;;;;;;;;;;16.10;32.70;;;;;;8336245;28;19956;-51
2022/01/22 12:27:03;;;;;;;;;;;16.20;32.80;;;;;;8336029;28;20388;-51
2022/01/22 12:31:08;;;;;;;;;;;16.20;32.80;;;;;;8335248;28;20281;-51
2022/01/22 12:35:10;;;;;;;;;;;16.20;32.80;;;;;;8335533;28;20148;-51
2022/01/22 12:39:17;;;;;;;;;;;16.20;32.80;;;;;;8335393;28;19925;-51
2022/01/22 12:43:25;;;;;;;;;;;16.20;32.80;;;;;;8336645;28;20301;-52
2022/01/22 12:47:27;;;;;;;;;;;16.20;32.80;;;;;;8335375;28;19968;-52
2022/01/22 12:51:27;;;;;;;;;;;16.20;32.90;;;;;;8335031;28;20297;-51
2022/01/22 12:55:48;;;;;;;;;;;16.20;32.90;;;;;;8334621;28;19917;-50
2022/01/22 12:59:53;;;;;;;;;;;16.20;32.90;;;;;;8334601;28;19925;-49
2022/01/22 13:03:55;;;;;;;;;;;16.20;32.90;;;;;;8334587;28;19921;-50
2022/01/22 13:08:01;;;;;;;;;;;16.20;32.90;;;;;;8335157;28;19947;-52
2022/01/22 13:12:03;;;;;;;;;;;16.20;32.90;;;;;;8334819;28;19917;-53
2022/01/22 13:16:05;;;;;;;;;;;16.20;32.80;;;;;;8334011;28;19913;-50
2022/01/22 13:20:07;;;;;;;;;;;16.20;32.90;;;;;;8334526;28;19929;-50
2022/01/22 13:24:09;;;;;;;;;;;16.20;32.90;;;;;;8334124;28;19927;-52
2022/01/22 13:28:12;;;;;;;;;;;16.20;32.90;;;;;;8333595;28;19971;-50
2022/01/22 13:32:28;;;;;;;;;;;16.20;32.90;;;;;;8334233;28;20293;-52
2022/01/22 13:48:57;;;;;;;;;;;16.20;32.90;;;;;;8333313;28;19924;-51
2022/01/22 13:52:57;;;;;;;;;;;16.20;33.00;;;;;;8333543;28;19917;-52
2022/01/22 13:57:03;;;;;;;;;;;16.20;33.00;;;;;;8333039;28;19917;-52
2022/01/22 14:01:07;;;;;;;;;;;16.20;33.00;;;;;;8332515;28;19952;-50
2022/01/22 14:05:08;;;;;;;;;;;16.20;33.00;;;;;;8331937;28;19921;-50
2022/01/22 14:09:15;;;;;;;;;;;16.20;33.00;;;;;;8332941;28;20337;-52
2022/01/22 14:13:15;;;;;;;;;;;16.20;33.00;;;;;;8332398;28;19913;-55
2022/01/22 14:17:16;;;;;;;;;;;16.20;33.00;;;;;;8332566;28;20413;-52
2022/01/22 14:21:20;;;;;;;;;;;16.20;33.00;;;;;;8332529;28;20403;-53
2022/01/22 14:25:20;;;;;;;;;;;16.20;33.00;;;;;;8331838;28;20290;-54
2022/01/22 14:29:21;;;;;;;;;;;16.20;33.00;;;;;;8332194;28;19913;-53
2022/01/22 14:33:21;;;;;;;;;;;16.20;33.00;;;;;;8332038;28;20352;-52
2022/01/22 14:37:31;;;;;;;;;;;16.20;33.00;;;;;;8331387;28;20008;-51
2022/01/22 14:45:54;;;;;;;;;;;16.20;33.00;;;;;;8332569;28;19940;-52
2022/01/22 14:50:06;;;;;;;;;;;16.20;33.00;;;;;;8331430;28;19921;-54
2022/01/22 14:54:06;;;;;;;;;;;16.20;33.00;;;;;;8331722;28;19999;-52
2022/01/22 14:58:06;;;;;;;;;;;16.20;33.00;;;;;;8330829;28;20336;-52
2022/01/22 15:02:07;;;;;;;;;;;16.20;33.00;;;;;;8331424;28;20262;-52
2022/01/22 15:06:08;;;;;;;;;;;16.20;33.00;;;;;;8331420;28;19921;-51
2022/01/22 15:10:09;;;;;;;;;;;16.20;33.00;;;;;;8330672;28;22473;-51
2022/01/22 15:14:10;;;;;;;;;;;16.20;33.00;;;;;;8331395;28;19913;-50
2022/01/22 15:18:26;;;;;;;;;;;16.20;33.10;;;;;;8330754;28;19924;-50
2022/01/22 15:22:26;;;;;;;;;;;16.20;33.10;;;;;;8331136;28;19979;-53
2022/01/22 15:26:27;;;;;;;;;;;16.30;33.10;;;;;;8330889;28;19971;-52
2022/01/22 15:30:34;;;;;;;;;;;16.20;33.10;;;;;;8330430;28;19921;-51
2022/01/22 15:38:35;;;;;;;;;;;16.20;33.10;;;;;;8330701;28;20055;-51
2022/01/22 15:42:35;;;;;;;;;;;16.20;33.10;;;;;;8330306;28;19921;-49
2022/01/22 15:46:38;;;;;;;;;;;16.20;33.10;;;;;;8329692;28;19924;-51
2022/01/22 15:50:39;;;;;;;;;;;16.20;33.10;;;;;;8330216;28;20370;-52
2022/01/22 15:54:41;;;;;;;;;;;16.20;33.10;;;;;;8336638;28;19958;-49
2022/01/22 15:58:41;;;;;;;;;;;16.20;33.20;;;;;;8336255;28;20370;-52
2022/01/22 16:02:42;;;;;;;;;;;16.20;33.20;;;;;;8336696;28;19917;-50
2022/01/22 16:10:54;;;;;;;;;;;16.20;33.10;;;;;;8336238;28;20358;-53
2022/01/22 16:14:57;;;;;;;;;;;16.10;33.10;;;;;;8336647;28;20062;-49
2022/01/22 16:18:57;;;;;;;;;;;16.20;33.20;;;;;;8335874;28;20020;-51
2022/01/22 16:22:58;;;;;;;;;;;16.10;33.20;;;;;;8336007;28;19925;-50
2022/01/22 16:26:58;;;;;;;;;;;16.10;33.20;;;;;;8336134;28;19948;-51
2022/01/22 16:30:59;;;;;;;;;;;16.10;33.20;;;;;;8335344;28;20366;-52
2022/01/22 16:34:59;;;;;;;;;;;16.10;33.20;;;;;;8335901;28;19920;-50
2022/01/22 16:39:00;;;;;;;;;;;16.10;33.20;;;;;;8335501;28;20369;-50
2022/01/22 16:43:04;;;;;;;;;;;16.10;33.20;;;;;;8334844;28;19917;-53
2022/01/22 16:51:37;;;;;;;;;;;16.10;33.20;;;;;;8339180;28;19924;-49
2022/01/22 16:55:43;;;;;;;;;;;16.10;33.20;;;;;;8334632;28;19917;-53
2022/01/22 16:59:47;;;;;;;;;;;16.10;33.30;;;;;;8335332;28;19965;-54
2022/01/22 17:03:50;;;;;;;;;;;16.10;33.30;;;;;;8333986;28;19921;-50
2022/01/22 17:16:13;;;;;;;;;;;16.10;33.30;;;;;;8334166;28;19986;-53
2022/01/22 17:20:13;;;;;;;;;;;16.10;33.30;;;;;;8334301;28;19921;-54
2022/01/22 17:24:14;;;;;;;;;;;16.10;33.30;;;;;;8334269;28;19925;-52
2022/01/22 17:28:14;;;;;;;;;;;16.10;33.30;;;;;;8333265;28;19924;-54
2022/01/22 17:32:15;;;;;;;;;;;16.10;33.30;;;;;;8334092;28;19921;-51
2022/01/22 17:36:16;;;;;;;;;;;16.10;33.30;;;;;;8333776;28;20366;-52
2022/01/22 17:40:18;;;;;;;;;;;16.10;33.30;;;;;;8333163;28;19921;-54
2022/01/22 17:44:21;;;;;;;;;;;16.10;33.30;;;;;;8333762;28;19917;-50
2022/01/22 17:48:21;;;;;;;;;;;16.00;33.20;;;;;;8333419;28;20297;-49
2022/01/22 17:52:22;;;;;;;;;;;16.10;33.40;;;;;;8332713;28;19963;-51
2022/01/22 17:56:22;;;;;;;;;;;16.00;33.20;;;;;;8333534;28;19959;-50
2022/01/22 18:00:23;;;;;;;;;;;16.00;33.30;;;;;;8333248;28;19944;-54
2022/01/22 18:04:24;;;;;;;;;;;16.00;33.20;;;;;;8332701;28;20008;-54
2022/01/22 18:08:24;;;;;;;;;;;16.00;33.20;;;;;;8333031;28;19917;-53
2022/01/22 18:12:25;;;;;;;;;;;16.00;33.30;;;;;;8332737;28;19917;-50
2022/01/22 18:16:26;;;;;;;;;;;16.00;33.20;;;;;;8330399;28;20019;-51
2022/01/22 18:20:27;;;;;;;;;;;16.00;33.30;;;;;;8332645;28;19928;-51
2022/01/22 18:24:27;;;;;;;;;;;16.00;33.20;;;;;;8332269;28;19932;-52
2022/01/22 18:28:27;;;;;;;;;;;16.00;33.30;;;;;;8331667;28;20369;-51
2022/01/22 18:32:29;;;;;;;;;;;16.00;33.20;;;;;;8332369;28;19917;-52
2022/01/22 18:36:31;;;;;;;;;;;16.00;33.30;;;;;;8331995;28;20004;-52
2022/01/22 18:40:31;;;;;;;;;;;16.00;33.30;;;;;;8331410;28;19921;-53
2022/01/22 18:44:32;;;;;;;;;;;16.00;33.30;;;;;;8331586;28;20321;-49
2022/01/22 18:48:32;;;;;;;;;;;16.00;33.30;;;;;;8331613;28;19917;-50
2022/01/22 18:52:33;;;;;;;;;;;16.00;33.30;;;;;;8330904;28;19963;-51
2022/01/22 18:56:33;;;;;;;;;;;16.00;33.30;;;;;;8331424;28;19913;-51
2022/01/22 19:00:34;;;;;;;;;;;16.00;33.30;;;;;;8331335;28;19925;-49
2022/01/22 19:04:34;;;;;;;;;;;16.00;33.30;;;;;;8330811;28;19921;-50
2022/01/22 19:08:35;;;;;;;;;;;16.00;33.40;;;;;;8330750;28;20161;-51
2022/01/22 19:12:39;;;;;;;;;;;16.00;33.30;;;;;;8330640;28;20384;-53
2022/01/22 19:16:39;;;;;;;;;;;16.00;33.30;;;;;;8330253;28;19921;-50
2022/01/22 19:20:41;;;;;;;;;;;16.00;33.40;;;;;;8330699;28;19925;-50
2022/01/22 19:24:53;;;;;;;;;;;16.00;33.40;;;;;;8330491;28;19917;-51
2022/01/22 19:28:53;;;;;;;;;;;16.00;33.40;;;;;;8329818;28;19963;-51
2022/01/22 19:32:54;;;;;;;;;;;16.00;33.40;;;;;;8330555;28;19959;-51
2022/01/22 19:36:57;;;;;;;;;;;16.00;33.40;;;;;;8330203;28;19917;-51
2022/01/22 19:40:57;;;;;;;;;;;16.00;33.40;;;;;;8330540;28;19921;-50
2022/01/22 19:45:00;;;;;;;;;;;16.00;33.40;;;;;;8330323;28;19918;-49
2022/01/22 19:49:01;;;;;;;;;;;16.00;33.40;;;;;;8329536;28;20361;-51
2022/01/22 19:53:03;;;;;;;;;;;15.90;33.30;;;;;;8323898;28;19921;-50
2022/01/22 19:57:04;;;;;;;;;;;16.00;33.40;;;;;;8329836;28;19917;-50
2022/01/22 20:01:04;;;;;;;;;;;16.00;33.40;;;;;;8329626;28;19992;-51
2022/01/22 20:05:05;;;;;;;;;;;16.00;33.40;;;;;;8329972;28;19964;-51
2022/01/22 20:09:06;;;;;;;;;;;16.00;33.40;;;;;;8328795;28;20301;-51
2022/01/22 20:13:07;;;;;;;;;;;16.00;33.40;;;;;;8329358;28;19913;-50
2022/01/22 20:17:07;;;;;;;;;;;16.00;33.40;;;;;;8329596;28;19962;-54
2022/01/22 20:21:08;;;;;;;;;;;16.00;33.40;;;;;;8329867;28;19956;-53
2022/01/22 20:25:08;;;;;;;;;;;15.90;33.30;;;;;;8329049;28;20457;-53
2022/01/22 20:29:09;;;;;;;;;;;16.00;33.40;;;;;;8329547;28;19917;-49
2022/01/22 20:33:10;;;;;;;;;;;16.00;33.40;;;;;;8329313;28;19918;-50
2022/01/22 20:37:10;;;;;;;;;;;16.00;33.40;;;;;;8328906;28;20381;-51
2022/01/22 20:41:11;;;;;;;;;;;16.00;33.40;;;;;;8334429;28;19953;-52
2022/01/22 20:45:13;;;;;;;;;;;16.00;33.40;;;;;;8335254;28;20285;-50
2022/01/22 20:49:13;;;;;;;;;;;16.00;33.40;;;;;;8334864;28;20266;-54
2022/01/22 20:53:15;;;;;;;;;;;16.00;33.40;;;;;;8335325;28;19917;-52
2022/01/22 20:57:18;;;;;;;;;;;16.00;33.40;;;;;;8335133;28;20301;-54
2022/01/22 21:01:20;;;;;;;;;;;15.90;33.30;;;;;;8334664;28;19928;-51
2022/01/22 21:05:22;;;;;;;;;;;16.00;33.40;;;;;;8334862;28;19921;-51
2022/01/22 21:09:22;;;;;;;;;;;15.90;33.40;;;;;;8334531;28;19913;-52
2022/01/22 21:13:23;;;;;;;;;;;16.00;33.40;;;;;;8334109;28;20297;-53
2022/01/22 21:17:23;;;;;;;;;;;15.90;33.30;;;;;;8334335;28;20358;-51
2022/01/22 21:21:26;;;;;;;;;;;15.90;33.30;;;;;;8334417;28;19925;-53
2022/01/22 21:25:26;;;;;;;;;;;15.90;33.30;;;;;;8333594;28;19921;-51
2022/01/22 21:29:27;;;;;;;;;;;15.90;33.40;;;;;;8328603;28;19917;-52
2022/01/22 21:33:36;;;;;;;;;;;15.90;33.30;;;;;;8334042;28;19917;-52
2022/01/22 21:41:53;;;;;;;;;;;15.90;33.40;;;;;;8339709;28;19921;-52
2022/01/22 21:45:53;;;;;;;;;;;15.90;33.30;;;;;;8333159;28;19952;-53
2022/01/22 21:49:54;;;;;;;;;;;15.90;33.30;;;;;;8333330;28;19917;-51
2022/01/22 21:53:55;;;;;;;;;;;15.90;33.40;;;;;;8333268;28;19920;-54
2022/01/22 21:57:56;;;;;;;;;;;15.80;33.30;;;;;;8332607;28;19921;-50
2022/01/22 22:01:56;;;;;;;;;;;15.90;33.30;;;;;;8333424;28;19925;-52
2022/01/22 22:05:57;;;;;;;;;;;15.80;33.30;;;;;;8333134;28;19921;-50
2022/01/22 22:09:57;;;;;;;;;;;15.90;33.30;;;;;;8332258;28;19996;-51
2022/01/22 22:13:58;;;;;;;;;;;15.90;33.30;;;;;;8332702;28;19924;-53
2022/01/22 22:17:58;;;;;;;;;;;15.80;33.30;;;;;;8332378;28;19913;-50
2022/01/22 22:21:59;;;;;;;;;;;15.80;33.30;;;;;;8331982;28;19925;-50
2022/01/22 22:25:59;;;;;;;;;;;15.80;33.30;;;;;;8332053;28;19917;-50
2022/01/22 22:30:00;;;;;;;;;;;15.90;33.30;;;;;;8314241;28;20362;-49
2022/01/22 22:34:00;;;;;;;;;;;15.80;33.30;;;;;;8331316;28;19913;-49
2022/01/22 22:38:01;;;;;;;;;;;15.80;33.30;;;;;;8331748;28;20392;-52
2022/01/22 22:42:01;;;;;;;;;;;15.80;33.30;;;;;;8331901;28;19980;-52
2022/01/22 22:46:03;;;;;;;;;;;15.80;33.30;;;;;;8331229;28;19917;-49
2022/01/22 22:50:04;;;;;;;;;;;15.80;33.30;;;;;;8331555;28;19917;-50
2022/01/22 22:54:08;;;;;;;;;;;15.80;33.30;;;;;;8331286;28;19921;-52
2022/01/22 22:58:09;;;;;;;;;;;15.80;33.30;;;;;;8330676;28;20361;-49
2022/01/22 23:02:09;;;;;;;;;;;15.80;33.30;;;;;;8312134;28;20012;-49
2022/01/22 23:06:10;;;;;;;;;;;15.80;33.30;;;;;;8331148;28;20313;-50
2022/01/22 23:10:10;;;;;;;;;;;15.80;33.30;;;;;;8329547;28;20008;-49
2022/01/22 23:14:13;;;;;;;;;;;15.80;33.30;;;;;;8330672;28;19963;-49
2022/01/22 23:22:47;;;;;;;;;;;15.80;33.30;;;;;;8329679;28;19925;-50
2022/01/22 23:26:47;;;;;;;;;;;15.80;33.30;;;;;;8298612;28;19952;-49
2022/01/22 23:30:50;;;;;;;;;;;15.70;33.20;;;;;;8322044;28;19918;-50
2022/01/22 23:35:00;;;;;;;;;;;15.80;33.30;;;;;;8329989;28;20522;-50
2022/01/22 23:57:16;;;;;;;;;;;15.70;33.30;;;;;;8229337;28;19958;-50
